createdAt,value
2017-09-18T00:03:10.984Z,17
2017-09-18T00:13:11.012Z,19
2017-09-18T00:23:11.081Z,18
2017-09-18T00:33:10.971Z,17
2017-09-18T00:43:11.090Z,17
2017-09-18T00:53:11.014Z,16
2017-09-18T01:03:10.992Z,15
2017-09-18T01:13:11.705Z,18
2017-09-18T01:23:11.046Z,19
2017-09-18T01:33:11.132Z,20
2017-09-18T01:43:11.161Z,28
2017-09-18T01:53:11.089Z,25
2017-09-18T02:03:11.044Z,26
2017-09-18T02:13:11.043Z,23
2017-09-18T02:23:11.086Z,24
2017-09-18T02:33:11.183Z,24
2017-09-18T02:43:11.093Z,23
2017-09-18T02:53:11.186Z,24
2017-09-18T03:03:11.125Z,22
2017-09-18T03:13:11.201Z,22
2017-09-18T03:23:11.135Z,20
2017-09-18T03:33:11.108Z,21
2017-09-18T03:43:11.177Z,21
2017-09-18T03:53:11.319Z,20
2017-09-18T04:03:11.170Z,19
2017-09-18T04:13:11.287Z,20
2017-09-18T04:23:11.207Z,19
2017-09-18T04:33:11.186Z,19
2017-09-18T04:43:11.293Z,17
2017-09-18T04:53:11.225Z,17
2017-09-18T05:03:11.270Z,17
2017-09-18T05:13:11.255Z,17
2017-09-18T05:23:11.287Z,17
2017-09-18T05:33:11.263Z,17
2017-09-18T05:43:11.322Z,17
2017-09-18T05:53:11.287Z,17
2017-09-18T06:03:11.371Z,17
2017-09-18T06:13:11.306Z,17
2017-09-18T06:23:11.323Z,18
2017-09-18T06:33:11.365Z,19
2017-09-18T06:43:11.409Z,19
2017-09-18T06:53:11.437Z,15
2017-09-18T07:03:11.553Z,16
2017-09-18T07:13:11.342Z,14
2017-09-18T07:23:11.497Z,16
2017-09-18T07:33:11.417Z,14
2017-09-18T07:43:11.364Z,13
2017-09-18T07:53:12.211Z,13
2017-09-18T08:03:11.441Z,13
2017-09-18T08:13:11.431Z,18
2017-09-18T08:23:12.761Z,19
2017-09-18T08:33:13.276Z,19
2017-09-18T08:43:11.422Z,20
2017-09-18T08:53:11.581Z,19
2017-09-18T09:03:11.528Z,20
2017-09-18T09:13:11.402Z,22
2017-09-18T09:23:11.950Z,20
2017-09-18T09:33:12.033Z,21
2017-09-18T09:43:11.566Z,21
2017-09-18T09:53:12.278Z,21
2017-09-18T10:03:11.485Z,22
2017-09-18T10:13:11.646Z,21
2017-09-18T10:23:11.604Z,20
2017-09-18T10:33:11.618Z,20
2017-09-18T10:43:11.554Z,19
2017-09-18T10:53:11.724Z,18
2017-09-18T11:03:12.154Z,19
2017-09-18T11:13:11.669Z,19
2017-09-18T11:23:11.570Z,18
2017-09-18T11:33:11.777Z,17
2017-09-18T11:43:20.177Z,18
2017-09-18T11:53:21.308Z,16
2017-09-18T12:03:11.622Z,17
2017-09-18T12:13:11.654Z,19
2017-09-18T12:23:11.682Z,19
2017-09-18T12:33:11.652Z,17
2017-09-18T12:43:11.633Z,16
2017-09-18T12:53:11.660Z,15
2017-09-18T13:03:11.666Z,14
2017-09-18T13:13:11.641Z,13
2017-09-18T13:23:11.715Z,15
2017-09-18T13:33:11.617Z,11
2017-09-18T13:43:11.924Z,10
2017-09-18T13:53:11.652Z,9
2017-09-18T14:03:11.672Z,8
2017-09-18T14:13:12.312Z,7
2017-09-18T14:23:11.741Z,7
2017-09-18T14:33:11.557Z,7
2017-09-18T14:43:11.625Z,5
2017-09-18T14:53:12.531Z,6
2017-09-18T15:03:11.692Z,6
2017-09-18T15:13:11.628Z,6
2017-09-18T15:23:11.698Z,3
2017-09-18T15:33:11.676Z,1
2017-09-18T15:43:11.650Z,0
2017-09-18T15:53:11.657Z,1
2017-09-18T16:03:12.716Z,1
2017-09-18T16:13:11.715Z,1
2017-09-18T16:23:11.721Z,1
2017-09-18T16:33:11.738Z,1
2017-09-18T16:43:11.617Z,2
2017-09-18T16:53:11.646Z,1
2017-09-18T17:03:11.796Z,2
2017-09-18T17:13:11.658Z,1
2017-09-18T17:23:11.820Z,2
2017-09-18T17:33:11.689Z,2
2017-09-18T17:43:11.709Z,2
2017-09-18T17:53:11.630Z,2
2017-09-18T18:03:11.573Z,3
2017-09-18T18:13:11.604Z,4
2017-09-18T18:23:11.629Z,5
2017-09-18T18:33:11.654Z,6
2017-09-18T18:43:11.626Z,6
2017-09-18T18:53:11.660Z,8
2017-09-18T19:03:11.731Z,8
2017-09-18T19:13:11.585Z,9
2017-09-18T19:23:11.624Z,9
2017-09-18T19:33:11.617Z,9
2017-09-18T19:43:11.656Z,11
2017-09-18T19:53:11.601Z,12
2017-09-18T20:03:12.014Z,12
2017-09-18T20:13:11.651Z,14
2017-09-18T20:23:11.650Z,14
2017-09-18T20:33:11.642Z,12
2017-09-18T20:43:11.608Z,14
2017-09-18T20:53:11.715Z,13
2017-09-18T21:03:11.679Z,12
2017-09-18T21:13:11.745Z,14
2017-09-18T21:23:11.756Z,13
2017-09-18T21:33:11.980Z,14
2017-09-18T21:43:11.910Z,15
2017-09-18T21:53:11.785Z,15
2017-09-18T22:03:11.704Z,16
2017-09-18T22:13:11.714Z,16
2017-09-18T22:23:11.655Z,17
2017-09-18T22:33:11.753Z,18
2017-09-18T22:43:11.588Z,17
2017-09-18T22:53:11.621Z,18
2017-09-18T23:03:11.708Z,18
2017-09-18T23:13:11.579Z,19
2017-09-18T23:23:11.560Z,19
2017-09-18T23:33:11.674Z,20
2017-09-18T23:43:11.639Z,20
2017-09-18T23:53:11.745Z,21
